Archival Weather

Republic

Farmingdale, New York (KFRG)

Report from: Wednesday, February 7, 2024 9:53 AM EST
Current time: Saturday, June 22, 2024 4:28 AM EDT

Current weather – Weather history – Daily summaries
Weather forecast

Temperature4.4°C (39.9°F)
Wind chill0.3°C (32.5°F)
Dew point-4.4°C (24.1°F)
Winds 11 kts (5.7 m/s, 12.7 mph) North-Northeast (20°)
Visibility10 mi. (16.1 km)
Clouds Sky clear
Altimeter30.32 in.Hg (1027 mB)
Relative humidity53 %
Density altitude-1,671 ft. (-509 m)
Sea-level pressure102.7 kPa (1027 mB, 30.32 in.Hg)
Remarks Automated weather observing station without precipitation discriminator
Pressure rising more slowly
Flight conditions Visual Meteorological Conditions
Raw dataKFRG 071453Z 02011KT 10SM CLR 04/M04 A3032 RMK AO1 SLP268 T00441044 51011
An error has occurred. This application may no longer respond until reloaded. Reload 🗙